Jacob Lake, Arizona
Current Conditions -  °F | °C
As of 1:55 AM on Monday 22 Dec 2014 (Local Time) from KAZC Reporting Station
Clear Clear  
Wind Chill: 29°   Ceiling: Unl
Heat Index: 29°   Visibility: 10mi
Dew Point: 29°   Wind: 3mph
Humidity: 98%   Direction: 110°ESE
Pressure: 30.12"   Gusts: NA
Location:  36.9484°N, 112.529°W
Report Text: KAZC 220855Z AUTO 11003KT 10SM CLR M01/M02 A3012 RMK AO2 T10141017
Loading
Personal Weather Stations






























Interactive Weather Map New forecast layout! Learn more

10-Day Weather Forecast

Advertisements
Track Severe Weather on mobile